»·PEaware :: FDX990 KBOI-KRNO

FDX990 :: KBOI-KRNO

FLIGHT INFORMATION

Flight Status: Arrived
Operator:
Federal Express
More flights by this operator :: More flights under this callsign
Pilot: Brett P. (26886)
Aircraft: BOEING 757-200
(B752)
More flights by this aircraft type
Origin: KBOI Boise Air Terminal/Gowen
United States
Destination: KRNO Reno/Tahoe Intl
United States
More flights between these airports :: More routes between these airports
Route: +BOI6 BOI HYVAL REO MYBAD WADOL2
File this flight plan on PilotEdge
Remarks:
Altitude:
(Current/Filed)
36,000ft
Speed:
(Current/Filed)
450kts
Departed: 30-Apr-20 06:32 PM
Arrived: 30-Apr-20 07:38 PM
Distance/Time
Traveled:
291nm/1:06
Distance/Time
To Go:
Arrived

Flight Plot

Page will automatically refresh every two minutes.


Map Options




Map Legend


Flown Route
Filed Route
Departure Airport
Arrival Airport
Navaid (VOR, NDB)
Fix

Horizontal Profiles

Position Reports

Time Latitude Longitude Heading Altitude Ground
Speed
30-Apr-20 18:02 43.566846 -116.216046 204 2860ft 0kts
30-Apr-20 18:03 43.566846 -116.216046 204 2860ft 0kts
30-Apr-20 18:04 43.566846 -116.216046 204 2860ft 0kts
30-Apr-20 18:05 43.566846 -116.216046 204 2860ft 0kts
30-Apr-20 18:06 43.566846 -116.216046 204 2860ft 0kts
30-Apr-20 18:07 43.566846 -116.216046 204 2860ft 0kts
30-Apr-20 18:08 43.566846 -116.216046 204 2860ft 0kts
30-Apr-20 18:09 43.566846 -116.216046 204 2860ft 0kts
30-Apr-20 18:10 43.566846 -116.216046 204 2860ft 0kts
30-Apr-20 18:11 43.566846 -116.216046 204 2860ft 0kts
30-Apr-20 18:12 43.566846 -116.216046 204 2860ft 0kts
30-Apr-20 18:13 43.566846 -116.216046 204 2860ft 0kts
30-Apr-20 18:14 43.566846 -116.216046 204 2860ft 0kts
30-Apr-20 18:15 43.566846 -116.216046 204 2860ft 0kts
30-Apr-20 18:16 43.566846 -116.216046 204 2860ft 0kts
30-Apr-20 18:17 43.566846 -116.216046 204 2860ft 0kts
30-Apr-20 18:18 43.566846 -116.216046 204 2860ft 0kts
30-Apr-20 18:19 43.566846 -116.216045 204 2860ft 0kts
30-Apr-20 18:20 43.566846 -116.216045 204 2860ft 0kts
30-Apr-20 18:21 43.567238 -116.215581 281 2860ft 2kts
30-Apr-20 18:22 43.567196 -116.215438 295 2860ft 0kts
30-Apr-20 18:23 43.567196 -116.215438 295 2860ft 0kts
30-Apr-20 18:24 43.567196 -116.215438 295 2860ft 0kts
30-Apr-20 18:25 43.567196 -116.215438 295 2860ft 0kts
30-Apr-20 18:26 43.567506 -116.216352 295 2858ft 7kts
30-Apr-20 18:27 43.565759 -116.217339 174 2858ft 15kts
30-Apr-20 18:28 43.562120 -116.209681 114 2867ft 35kts
30-Apr-20 18:29 43.559853 -116.203016 116 2876ft 0kts
30-Apr-20 18:30 43.559386 -116.202524 174 2876ft 9kts
30-Apr-20 18:31 43.565550 -116.223330 297 2887ft 161kts
30-Apr-20 18:32 43.585108 -116.288331 290 4910ft 214kts
30-Apr-20 18:33 43.609699 -116.373756 292 7334ft 256kts
30-Apr-20 18:34 43.637207 -116.468905 288 10388ft 272kts
30-Apr-20 18:35 43.662695 -116.585011 264 11969ft 340kts
30-Apr-20 18:36 43.608457 -116.683289 201 15405ft 352kts
30-Apr-20 18:37 43.510544 -116.702984 207 18526ft 360kts
30-Apr-20 18:38 43.421685 -116.769166 207 21175ft 373kts
30-Apr-20 18:39 43.324232 -116.825713 205 23470ft 389kts
30-Apr-20 18:40 43.222602 -116.882036 205 25553ft 402kts
30-Apr-20 18:41 43.117532 -116.939783 206 27443ft 412kts
30-Apr-20 18:42 43.012748 -117.004909 219 29047ft 414kts
30-Apr-20 18:43 42.929440 -117.113718 228 30569ft 418kts
30-Apr-20 18:44 42.863502 -117.241362 241 32449ft 411kts
30-Apr-20 18:45 42.807984 -117.375788 239 34074ft 406kts
30-Apr-20 18:46 42.750568 -117.507674 238 35325ft 406kts
30-Apr-20 18:47 42.692577 -117.638983 238 36041ft 406kts
30-Apr-20 18:48 42.634321 -117.770065 238 36051ft 406kts
30-Apr-20 18:49 42.551665 -117.870578 205 36057ft 416kts
30-Apr-20 18:50 42.436483 -117.903917 196 36046ft 425kts
30-Apr-20 18:51 42.320829 -117.931761 196 36045ft 424kts
30-Apr-20 18:52 42.204416 -117.959198 196 36043ft 425kts
30-Apr-20 18:53 42.087925 -117.986469 196 36041ft 426kts
30-Apr-20 18:54 41.971810 -118.013534 196 36037ft 425kts
30-Apr-20 18:55 41.855392 -118.040569 196 36045ft 426kts
30-Apr-20 18:56 41.738665 -118.067569 196 36041ft 425kts
30-Apr-20 18:57 41.622403 -118.094369 196 36037ft 425kts
30-Apr-20 18:58 41.506104 -118.121084 196 36033ft 426kts
30-Apr-20 18:59 41.389721 -118.147710 196 36029ft 426kts
30-Apr-20 19:00 41.273185 -118.174284 196 36029ft 427kts
30-Apr-20 19:01 41.155924 -118.200918 196 36025ft 428kts
30-Apr-20 19:02 41.038674 -118.227461 196 36023ft 429kts
30-Apr-20 19:03 40.921503 -118.253885 196 36021ft 429kts
30-Apr-20 19:04 40.805129 -118.280043 196 35964ft 429kts
30-Apr-20 19:05 40.692437 -118.305210 197 34328ft 408kts
30-Apr-20 19:06 40.579944 -118.330387 196 32514ft 414kts
30-Apr-20 19:08 40.465721 -118.355795 196 30789ft 419kts
30-Apr-20 19:09 40.350930 -118.381223 196 29661ft 417kts
30-Apr-20 19:10 40.236128 -118.408088 201 29550ft 420kts
30-Apr-20 19:11 40.148005 -118.492701 239 27691ft 392kts
30-Apr-20 19:12 40.097713 -118.616374 240 25745ft 381kts
30-Apr-20 19:13 40.045129 -118.732090 238 23914ft 373kts
30-Apr-20 19:14 39.992212 -118.845692 238 22206ft 362kts
30-Apr-20 19:15 39.939803 -118.957451 238 20774ft 357kts
30-Apr-20 19:16 39.888636 -119.066153 238 19370ft 348kts
30-Apr-20 19:17 39.838521 -119.172235 238 17995ft 340kts
30-Apr-20 19:18 39.789023 -119.276654 238 16541ft 336kts
30-Apr-20 19:19 39.736386 -119.376890 236 15167ft 335kts
30-Apr-20 19:20 39.683123 -119.476925 236 13135ft 340kts
30-Apr-20 19:21 39.631636 -119.573329 236 12116ft 297kts
30-Apr-20 19:22 39.570337 -119.633335 208 11680ft 263kts
30-Apr-20 19:22 39.516025 -119.655367 181 11009ft 246kts
30-Apr-20 19:24 39.438636 -119.633061 167 11003ft 248kts
30-Apr-20 19:25 39.372312 -119.611080 172 10998ft 236kts
30-Apr-20 19:25 39.318868 -119.601659 182 10762ft 233kts
30-Apr-20 19:26 39.255518 -119.598714 182 10019ft 224kts
30-Apr-20 19:28 39.185289 -119.596677 196 10017ft 211kts
30-Apr-20 19:28 39.168145 -119.644167 273 9485ft 193kts
30-Apr-20 19:29 39.179672 -119.709889 314 9029ft 202kts
30-Apr-20 19:30 39.227579 -119.748077 323 9029ft 197kts
30-Apr-20 19:31 39.279352 -119.770001 355 8895ft 209kts
30-Apr-20 19:32 39.337037 -119.769788 354 7929ft 201kts
30-Apr-20 19:33 39.391760 -119.769549 354 6613ft 183kts
30-Apr-20 19:34 39.435120 -119.769401 352 5588ft 136kts
30-Apr-20 19:35 39.473463 -119.769318 354 4735ft 136kts
30-Apr-20 19:36 39.505633 -119.769271 359 4426ft 55kts
30-Apr-20 19:37 39.510962 -119.768143 83 4426ft 0kts

Navigation Log

Ident Type
Flight plan parsing failed, navigation log unavailable